Time;durP1;ratioP1;P1;durP2;ratioP2;P2;SDS_P1;SDS_P2;PMS_P1;PMS_P2;Temp;Humidity;BMP_temperature;BMP_pressure;BME280_temperature;BME280_humidity;BME280_pressure;Samples;Min_cycle;Max_cycle;Signal;HPM_P1;HPM_P2
2023/01/02 00:00:44;;;;;;;47.27;17.95;;;;;;;5.62;100.00;101747.28;1825121;78;21558;-86
2023/01/02 00:03:10;;;;;;;41.10;16.90;;;;;;;5.60;100.00;101756.83;1825236;78;20994;-86
2023/01/02 00:05:37;;;;;;;46.33;17.65;;;;;;;5.58;100.00;101753.52;1825371;78;20995;-91
2023/01/02 00:08:03;;;;;;;43.40;17.45;;;;;;;5.60;100.00;101756.01;1825320;78;21058;-86
2023/01/02 00:10:29;;;;;;;44.10;18.27;;;;;;;5.62;100.00;101757.98;1825287;78;20951;-86
2023/01/02 00:12:55;;;;;;;44.27;18.05;;;;;;;5.63;100.00;101763.12;1825283;78;21562;-86
2023/01/02 00:15:22;;;;;;;45.85;18.32;;;;;;;5.66;100.00;101759.22;1825317;78;21487;-85
2023/01/02 00:17:48;;;;;;;46.25;17.60;;;;;;;5.66;100.00;101761.38;1825459;78;20971;-84
2023/01/02 00:20:14;;;;;;;44.88;17.65;;;;;;;5.68;100.00;101759.86;1825586;78;21059;-86
2023/01/02 00:22:40;;;;;;;44.73;18.05;;;;;;;5.69;100.00;101753.48;1825599;78;21018;-86
2023/01/02 00:25:07;;;;;;;43.68;18.02;;;;;;;5.70;100.00;101749.77;1825337;78;21034;-86
2023/01/02 00:27:33;;;;;;;45.95;18.92;;;;;;;5.73;100.00;101751.23;1825398;78;20974;-87
2023/01/02 00:30:00;;;;;;;50.45;18.85;;;;;;;5.73;100.00;101751.23;1825375;78;20987;-86
2023/01/02 00:32:26;;;;;;;49.73;19.73;;;;;;;5.70;100.00;101756.45;1825445;78;21981;-90
2023/01/02 00:34:52;;;;;;;46.68;18.65;;;;;;;5.70;100.00;101759.95;1825551;78;21504;-87
2023/01/02 00:37:18;;;;;;;53.52;19.62;;;;;;;5.70;100.00;101747.09;1825519;78;21076;-85
2023/01/02 00:39:45;;;;;;;51.50;19.62;;;;;;;5.72;100.00;101753.59;1825477;78;20955;-87
2023/01/02 00:42:11;;;;;;;50.03;19.62;;;;;;;5.73;100.00;101752.05;1825299;78;21105;-86
2023/01/02 00:44:37;;;;;;;50.92;20.23;;;;;;;5.73;100.00;101750.71;1825568;78;21130;-88
2023/01/02 00:47:03;;;;;;;46.35;17.57;;;;;;;5.71;100.00;101742.08;1825707;78;20979;-86
2023/01/02 00:49:30;;;;;;;48.48;18.17;;;;;;;5.72;100.00;101741.56;1825440;78;20967;-86
2023/01/02 00:51:56;;;;;;;49.80;18.77;;;;;;;5.67;100.00;101735.45;1820765;78;20965;-92
2023/01/02 00:54:22;;;;;;;45.70;17.75;;;;;;;5.68;100.00;101731.27;1815158;78;21039;-86
2023/01/02 00:56:48;;;;;;;45.23;18.07;;;;;;;5.68;100.00;101740.62;1814768;78;21135;-87
2023/01/02 00:59:15;;;;;;;51.42;18.87;;;;;;;5.68;100.00;101739.80;1815236;78;21028;-87
2023/01/02 01:01:41;;;;;;;51.33;18.42;;;;;;;5.67;100.00;101740.30;1815389;78;20958;-87
2023/01/02 01:04:07;;;;;;;51.88;19.15;;;;;;;5.66;100.00;101733.82;1815075;78;20985;-84
2023/01/02 01:06:34;;;;;;;48.52;18.98;;;;;;;5.64;100.00;101737.20;1815283;78;21043;-87
2023/01/02 01:09:00;;;;;;;43.68;18.23;;;;;;;5.62;100.00;101737.93;1814878;78;21061;-87
2023/01/02 01:11:26;;;;;;;46.80;18.40;;;;;;;5.59;100.00;101735.14;1815015;78;21078;-93
2023/01/02 01:13:53;;;;;;;53.60;19.62;;;;;;;5.59;100.00;101738.30;1815146;78;21051;-86
2023/01/02 01:16:19;;;;;;;39.70;16.90;;;;;;;5.56;100.00;101744.89;1815090;78;21529;-87
2023/01/02 01:18:47;;;;;;;45.30;17.40;;;;;;;5.53;100.00;101745.28;1815002;78;21079;-87
2023/01/02 01:21:17;;;;;;;44.83;17.02;;;;;;;5.52;100.00;101741.46;1814631;78;22025;-86
2023/01/02 01:23:44;;;;;;;47.20;18.62;;;;;;;5.50;100.00;101740.34;1814644;78;21197;-87
2023/01/02 01:26:12;;;;;;;46.28;18.85;;;;;;;5.46;100.00;101741.22;1815059;78;21095;-86
2023/01/02 01:28:40;;;;;;;43.52;16.85;;;;;;;5.43;100.00;101746.14;1815033;78;20988;-85
2023/01/02 01:31:10;;;;;;;43.17;18.02;;;;;;;5.41;100.00;101753.52;1815037;78;21051;-91
2023/01/02 01:33:38;;;;;;;45.38;18.65;;;;;;;5.35;100.00;101751.64;1814967;78;21079;-87
2023/01/02 01:36:08;;;;;;;45.92;18.50;;;;;;;5.30;100.00;101752.25;1814961;78;20941;-87
2023/01/02 01:38:35;;;;;;;47.25;18.20;;;;;;;5.28;100.00;101750.27;1789511;78;21012;-87
2023/01/02 01:41:02;;;;;;;43.65;18.02;;;;;;;5.26;100.00;101750.97;1815190;78;20988;-87
2023/01/02 01:43:50;;;;;;;42.55;17.55;;;;;;;5.26;100.00;101748.81;1815069;78;21392;-86
2023/01/02 01:46:43;;;;;;;46.83;17.30;;;;;;;5.26;100.00;101752.30;1814923;78;21155;-92
2023/01/02 01:49:25;;;;;;;46.50;17.73;;;;;;;5.23;100.00;101756.70;1814757;78;21005;-86
2023/01/02 01:52:05;;;;;;;48.85;18.37;;;;;;;5.21;100.00;101773.46;1811299;77;21017;-87
2023/01/02 01:54:38;;;;;;;49.25;18.45;;;;;;;5.22;100.00;101777.78;1800838;79;20999;-87
2023/01/02 01:57:22;;;;;;;43.00;17.27;;;;;;;5.19;100.00;101774.98;1678005;85;21126;-86
2023/01/02 01:59:49;;;;;;;43.35;17.55;;;;;;;5.14;100.00;101772.57;1676274;84;21963;-85
2023/01/02 02:02:16;;;;;;;46.20;18.35;;;;;;;5.08;100.00;101782.70;1677683;85;21613;-87
2023/01/02 02:04:44;;;;;;;42.17;17.32;;;;;;;5.01;100.00;101778.66;1677707;85;21585;-87
2023/01/02 02:07:11;;;;;;;42.27;16.82;;;;;;;4.88;100.00;101779.38;1677798;85;21116;-86
2023/01/02 02:09:51;;;;;;;47.40;18.52;;;;;;;4.82;100.00;101769.44;1677762;85;21041;-85
2023/01/02 02:12:17;;;;;;;48.87;17.70;;;;;;;4.83;100.00;101772.97;1677762;85;21269;-87
2023/01/02 02:14:44;;;;;;;39.58;16.48;;;;;;;4.78;100.00;101758.33;1677686;85;21078;-87
2023/01/02 02:17:24;;;;;;;46.37;18.40;;;;;;;4.76;100.00;101762.20;1678044;85;21065;-86
2023/01/02 02:20:17;;;;;;;47.65;17.82;;;;;;;4.72;100.00;101759.09;1674929;85;21079;-87
2023/01/02 02:22:58;;;;;;;51.60;19.05;;;;;;;4.70;100.00;101762.97;1677625;85;21077;-87
2023/01/02 02:26:11;;;;;;;47.05;18.42;;;;;;;4.68;100.00;101757.02;1677533;85;21829;-87
2023/01/02 02:29:14;;;;;;;45.10;17.37;;;;;;;4.66;100.00;101756.38;1670495;85;21072;-88
2023/01/02 02:31:58;;;;;;;52.17;18.77;;;;;;;4.64;100.00;101749.05;1670009;85;21442;-87
2023/01/02 02:34:27;;;;;;;;;;;;;;;4.62;100.00;101747.08;1669464;84;21091;-87
2023/01/02 02:37:01;;;;;;;48.40;18.23;;;;;;;4.61;100.00;101742.77;1660025;85;20227;-88
2023/01/02 02:40:09;;;;;;;49.05;18.92;;;;;;;4.60;100.00;101746.47;1642994;87;21152;-87
2023/01/02 02:42:46;;;;;;;48.45;18.67;;;;;;;4.57;100.00;101741.00;1614822;88;21620;-87
2023/01/02 02:45:39;;;;;;;53.85;20.25;;;;;;;4.53;100.00;101732.55;1614773;88;21083;-87
2023/01/02 02:48:35;;;;;;;48.73;19.50;;;;;;;4.52;100.00;101733.55;1615140;88;21025;-87
2023/01/02 02:51:24;;;;;;;56.13;19.37;;;;;;;4.52;100.00;101750.90;1611801;88;21596;-88
2023/01/02 02:54:01;;;;;;;59.08;20.52;;;;;;;4.51;100.00;101753.78;1554019;90;21674;-87
2023/01/02 02:56:29;;;;;;;48.33;19.95;;;;;;;4.50;100.00;101745.44;1587650;90;21051;-87
2023/01/02 02:58:56;;;;;;;58.05;21.25;;;;;;;4.50;100.00;101742.28;1588962;90;21115;-88
2023/01/02 03:01:26;;;;;;;50.17;19.10;;;;;;;4.51;100.00;101731.09;1589037;90;21139;-88
2023/01/02 03:03:52;;;;;;;62.08;21.35;;;;;;;4.50;100.00;101736.94;1588903;90;21795;-87
2023/01/02 03:06:30;;;;;;;49.40;19.60;;;;;;;4.47;100.00;101733.32;1589046;90;21438;-88
2023/01/02 03:09:25;;;;;;;51.33;19.35;;;;;;;4.46;100.00;101733.50;1589003;88;21032;-93
2023/01/02 03:11:59;;;;;;;55.38;20.75;;;;;;;4.46;100.00;101720.16;1588822;90;21556;-87
2023/01/02 03:14:49;;;;;;;55.98;20.68;;;;;;;4.48;100.00;101711.45;1586924;90;21078;-87
2023/01/02 03:17:41;;;;;;;51.15;20.62;;;;;;;4.49;100.00;101721.10;1609855;88;21076;-87
2023/01/02 03:20:14;;;;;;;52.40;19.45;;;;;;;4.47;100.00;101723.12;1619297;87;21208;-86
2023/01/02 03:22:45;;;;;;;52.17;19.67;;;;;;;4.44;100.00;101716.84;1639329;87;21115;-88
2023/01/02 03:25:14;;;;;;;52.85;19.77;;;;;;;4.44;100.00;101708.83;1639060;87;21143;-88
2023/01/02 03:27:44;;;;;;;57.88;21.30;;;;;;;4.46;100.00;101712.97;1639577;87;21009;-89
2023/01/02 03:30:17;;;;;;;50.63;19.98;;;;;;;4.46;100.00;101710.81;1696251;82;21096;-88
2023/01/02 03:32:52;;;;;;;;;;;;;;;4.46;100.00;101712.97;1735341;82;22082;-88
2023/01/02 03:35:30;;;;;;;47.58;18.75;;;;;;;4.42;100.00;101714.38;1732675;82;20452;-86
2023/01/02 03:37:59;;;;;;;52.58;19.07;;;;;;;4.44;100.00;101724.36;1662773;86;21026;-92
2023/01/02 03:40:36;;;;;;;54.18;20.12;;;;;;;4.45;100.00;101714.00;1664792;86;21585;-88
2023/01/02 03:43:25;;;;;;;52.75;20.10;;;;;;;4.45;100.00;101718.00;1664811;86;21074;-89
2023/01/02 03:46:13;;;;;;;49.67;20.20;;;;;;;4.47;100.00;101719.13;1638012;87;21278;-88
2023/01/02 03:49:01;;;;;;;52.17;19.35;;;;;;;4.48;100.00;101725.63;1642664;87;21053;-88
2023/01/02 03:51:28;;;;;;;54.03;20.15;;;;;;;4.48;100.00;101724.80;1614605;87;21063;-85
2023/01/02 03:53:54;;;;;;;53.60;21.15;;;;;;;4.48;100.00;101717.61;1625739;87;21198;-88
2023/01/02 03:56:35;;;;;;;52.88;20.15;;;;;;;4.48;100.00;101720.28;1627151;87;21051;-94
2023/01/02 03:59:09;;;;;;;51.58;19.05;;;;;;;4.49;100.00;101721.10;1627173;88;21917;-87
2023/01/02 04:01:49;;;;;;;54.73;20.62;;;;;;;4.48;100.00;101725.63;1623100;87;21075;-88
2023/01/02 04:04:32;;;;;;;62.25;21.10;;;;;;;4.49;100.00;101727.77;1622711;88;21181;-89
2023/01/02 04:07:02;;;;;;;51.13;19.92;;;;;;;4.47;100.00;101728.47;1627226;88;21593;-85
2023/01/02 04:09:32;;;;;;;52.93;21.00;;;;;;;4.48;100.00;101726.95;1627333;88;21036;-88
2023/01/02 04:12:09;;;;;;;58.45;20.68;;;;;;;4.49;100.00;101718.44;1627131;88;21174;-87
2023/01/02 04:14:41;;;;;;;56.75;20.02;;;;;;;4.53;100.00;101719.72;1626923;88;21095;-89
2023/01/02 04:17:08;;;;;;;56.13;19.75;;;;;;;4.54;100.00;101711.51;1528251;93;21590;-88
2023/01/02 04:19:58;;;;;;;50.83;20.52;;;;;;;4.56;100.00;101715.33;1536402;93;21077;-89
2023/01/02 04:22:29;;;;;;;54.98;20.30;;;;;;;4.57;100.00;101721.49;1552998;89;21095;-88
2023/01/02 04:25:13;;;;;;;49.48;19.50;;;;;;;4.56;100.00;101728.68;1599197;89;21083;-88
2023/01/02 04:27:54;;;;;;;;;;;;;;;4.54;100.00;101722.19;1602036;87;21048;-87
2023/01/02 04:30:20;;;;;;;54.38;18.95;;;;;;;4.50;100.00;101730.75;1644705;87;20175;-87
2023/01/02 04:32:48;;;;;;;51.08;19.10;;;;;;;4.47;100.00;101728.47;1645669;87;21204;-88
2023/01/02 04:35:18;;;;;;;52.27;20.25;;;;;;;4.46;100.00;101729.50;1698265;84;21029;-88
2023/01/02 04:37:45;;;;;;;54.15;19.90;;;;;;;4.45;100.00;101738.53;1704324;83;21192;-88
2023/01/02 04:40:22;;;;;;;52.20;19.70;;;;;;;4.44;100.00;101734.19;1704246;83;21149;-87
2023/01/02 04:42:49;;;;;;;47.27;18.45;;;;;;;4.40;100.00;101732.41;1704257;83;21014;-86
2023/01/02 04:45:19;;;;;;;53.65;20.55;;;;;;;4.37;100.00;101735.47;1704086;83;21629;-88
2023/01/02 04:47:49;;;;;;;51.95;19.52;;;;;;;4.36;100.00;101743.68;1592742;89;21052;-87
2023/01/02 04:50:16;;;;;;;49.83;19.00;;;;;;;4.37;100.00;101743.47;1562987;91;21289;-88
2023/01/02 04:52:42;;;;;;;50.85;19.02;;;;;;;4.35;100.00;101744.67;1554357;90;21093;-88
2023/01/02 04:55:09;;;;;;;50.52;18.70;;;;;;;4.36;100.00;101746.34;1564900;91;21057;-86
2023/01/02 04:57:37;;;;;;;50.03;18.70;;;;;;;4.36;100.00;101754.35;1580632;90;21108;-88
2023/01/02 05:00:06;;;;;;;50.17;19.75;;;;;;;4.35;100.00;101758.02;1563384;91;21005;-88
2023/01/02 05:02:37;;;;;;;56.40;19.62;;;;;;;4.33;100.00;101755.04;1563225;91;21228;-87
2023/01/02 05:05:04;;;;;;;51.88;19.20;;;;;;;4.31;100.00;101760.24;1563262;91;21136;-88
2023/01/02 05:07:33;;;;;;;54.42;21.23;;;;;;;4.31;100.00;101765.06;1563392;91;21609;-88
2023/01/02 05:09:59;;;;;;;52.45;19.20;;;;;;;4.30;100.00;101770.61;1563312;91;21002;-86
2023/01/02 05:12:25;;;;;;;60.80;21.70;;;;;;;4.29;100.00;101775.13;1563250;91;21068;-88
2023/01/02 05:14:52;;;;;;;54.40;20.70;;;;;;;4.29;100.00;101783.13;1561693;91;21650;-88
2023/01/02 05:17:18;;;;;;;52.10;20.02;;;;;;;4.29;100.00;101790.28;1561769;91;21085;-89
2023/01/02 05:19:44;;;;;;;48.48;19.52;;;;;;;4.28;100.00;101793.98;1561727;91;21119;-88
2023/01/02 05:24:56;;;;;;;50.38;20.02;;;;;;;4.23;100.00;101802.53;1561386;91;21619;-88
2023/01/02 05:27:22;;;;;;;47.30;18.02;;;;;;;4.20;100.00;101810.91;1561627;91;21098;-86
2023/01/02 05:29:48;;;;;;;50.50;19.20;;;;;;;4.19;100.00;101821.78;1561374;91;21608;-86
2023/01/02 05:32:15;;;;;;;50.88;19.17;;;;;;;4.13;100.00;101818.53;1561620;91;21143;-88
2023/01/02 05:34:41;;;;;;;55.90;19.10;;;;;;;4.03;100.00;101822.33;1568748;91;21033;-87
2023/01/02 05:37:07;;;;;;;53.98;19.17;;;;;;;4.02;100.00;101825.98;1575498;91;21143;-89
2023/01/02 05:39:33;;;;;;;53.20;18.27;;;;;;;4.04;100.00;101825.30;1575277;91;21095;-88
2023/01/02 05:42:00;;;;;;;52.08;19.20;;;;;;;4.06;100.00;101829.95;1574994;91;21112;-88
2023/01/02 05:44:26;;;;;;;52.17;19.17;;;;;;;4.04;100.00;101835.97;1609462;86;21097;-87
2023/01/02 05:46:53;;;;;;;54.90;19.77;;;;;;;4.04;100.00;101849.81;1691525;84;21094;-88
2023/01/02 05:49:19;;;;;;;47.00;17.85;;;;;;;4.10;100.00;101856.56;1674292;85;21210;-88
2023/01/02 05:51:45;;;;;;;48.00;19.20;;;;;;;4.17;100.00;101859.30;1741660;81;21481;-88
2023/01/02 05:54:12;;;;;;;49.80;18.02;;;;;;;4.26;100.00;101856.85;1776041;80;21535;-88
2023/01/02 05:56:38;;;;;;;50.98;18.57;;;;;;;4.35;100.00;101863.42;1748690;82;21043;-85
2023/01/02 05:59:07;;;;;;;47.62;18.00;;;;;;;4.45;100.00;101870.13;1756805;81;21074;-88
2023/01/02 06:01:34;;;;;;;47.67;18.62;;;;;;;4.52;100.00;101871.02;1756424;81;21063;-89
2023/01/02 06:04:00;;;;;;;48.30;18.95;;;;;;;4.62;100.00;101869.88;1756642;81;21347;-87
2023/01/02 06:06:34;;;;;;;51.95;19.37;;;;;;;4.83;100.00;101875.27;1756677;81;20946;-87
2023/01/02 06:09:02;;;;;;;48.20;18.07;;;;;;;5.09;100.00;101872.52;1754005;81;20958;-86
2023/01/02 06:11:29;;;;;;;45.35;17.95;;;;;;;5.41;100.00;101863.97;1756553;81;21451;-86
2023/01/02 06:13:56;;;;;;;45.25;18.17;;;;;;;5.69;100.00;101869.81;1756533;81;20977;-88
2023/01/02 06:16:23;;;;;;;51.45;17.67;;;;;;;5.96;100.00;101870.00;1756445;81;21145;-88
2023/01/02 06:18:50;;;;;;;40.78;16.87;;;;;;;6.49;100.00;101872.39;1756592;81;20985;-88
2023/01/02 06:21:19;;;;;;;45.00;17.75;;;;;;;7.19;100.00;101880.98;1756670;81;21029;-89
2023/01/02 06:23:48;;;;;;;40.10;17.85;;;;;;;8.00;100.00;101881.23;1756485;81;20993;-88
2023/01/02 06:26:19;;;;;;;38.75;16.67;;;;;;;8.73;100.00;101872.86;1756428;81;21436;-88
2023/01/02 06:28:53;;;;;;;36.33;16.75;;;;;;;9.67;100.00;101871.62;1756381;81;21260;-89
2023/01/02 06:31:23;;;;;;;35.78;16.42;;;;;;;10.78;100.00;101871.05;1722420;83;21016;-88
2023/01/02 06:33:57;;;;;;;30.80;15.65;;;;;;;12.01;100.00;101875.64;1735892;82;21108;-88
2023/01/02 06:36:23;;;;;;;30.88;15.13;;;;;;;12.85;100.00;101871.58;1730790;81;21490;-88
2023/01/02 06:38:50;;;;;;;31.73;14.63;;;;;;;12.84;100.00;101868.59;1730082;81;21022;-88
2023/01/02 06:41:17;;;;;;;30.32;14.23;;;;;;;12.47;100.00;101870.33;1706280;81;21125;-89
2023/01/02 06:43:47;;;;;;;32.48;14.40;;;;;;;12.38;100.00;101867.72;1730414;81;21022;-89
2023/01/02 06:46:16;;;;;;;28.67;13.48;;;;;;;12.37;100.00;101875.55;1708329;84;21045;-88
2023/01/02 06:48:42;;;;;;;27.13;13.90;;;;;;;12.18;100.00;101887.08;1684362;84;21110;-89
2023/01/02 06:51:13;;;;;;;27.93;12.80;;;;;;;12.55;100.00;101885.36;1707844;82;21080;-86
2023/01/02 06:53:41;;;;;;;30.37;12.68;;;;;;;13.30;100.00;101893.77;1652033;85;21175;-87
2023/01/02 06:56:09;;;;;;;25.57;12.00;;;;;;;14.38;100.00;101889.30;1653365;85;21098;-90
2023/01/02 06:58:37;;;;;;;22.93;11.75;;;;;;;15.54;100.00;101888.80;1653617;85;21075;-89
2023/01/02 07:01:07;;;;;;;23.40;11.10;;;;;;;16.53;100.00;101886.31;1653414;85;20994;-89
2023/01/02 07:03:34;;;;;;;19.35;10.75;;;;;;;17.57;100.00;101892.42;1572841;89;21232;-90
2023/01/02 07:06:03;;;;;;;25.35;12.13;;;;;;;18.45;100.00;101893.80;1552351;89;22041;-89
2023/01/02 07:08:31;;;;;;;30.37;12.93;;;;;;;19.35;100.00;101887.72;1573064;89;21100;-90
2023/01/02 07:11:16;;;;;;;25.27;11.05;;;;;;;20.05;100.00;101890.05;1552541;89;21084;-89
2023/01/02 07:13:44;;;;;;;22.25;11.45;;;;;;;21.01;100.00;101881.63;1522194;92;21139;-87
2023/01/02 07:16:14;;;;;;;27.25;12.55;;;;;;;21.82;100.00;101884.85;1522247;94;21731;-86
2023/01/02 07:18:41;;;;;;;23.47;11.40;;;;;;;22.74;100.00;101884.31;1522180;94;22028;-86
2023/01/02 07:21:09;;;;;;;27.85;12.07;;;;;;;23.42;100.00;101881.57;1521880;92;21146;-88
2023/01/02 07:23:41;;;;;;;25.52;12.75;;;;;;;23.79;100.00;101892.69;1522708;92;21081;-86
2023/01/02 07:26:08;;;;;;;23.40;11.60;;;;;;;24.32;100.00;101895.84;1547349;91;21077;-90
2023/01/02 07:28:36;;;;;;;22.55;11.90;;;;;;;24.88;96.29;101890.01;1524544;92;21800;-86
2023/01/02 07:31:06;;;;;;;19.62;10.20;;;;;;;25.37;93.27;101893.34;1538067;91;21634;-86
2023/01/02 07:33:33;;;;;;;16.55;9.70;;;;;;;26.04;87.60;101890.44;1538211;91;21090;-87
2023/01/02 07:36:03;;;;;;;18.15;9.35;;;;;;;26.60;75.11;101887.48;1538419;91;21113;-86
2023/01/02 07:38:30;;;;;;;17.37;8.68;;;;;;;26.53;67.88;101886.40;1513830;93;21095;-85
2023/01/02 07:40:56;;;;;;;16.67;9.13;;;;;;;26.59;65.07;101905.78;1513776;93;21121;-88
2023/01/02 07:43:23;;;;;;;20.75;10.20;;;;;;;26.73;64.30;101900.22;1494361;93;21200;-86
2023/01/02 07:45:49;;;;;;;15.70;8.98;;;;;;;27.20;60.95;101902.52;1514137;93;21111;-87
2023/01/02 07:48:16;;;;;;;18.42;10.13;;;;;;;26.80;57.16;101903.04;1514042;93;21125;-89
2023/01/02 07:50:42;;;;;;;15.18;9.70;;;;;;;25.97;55.94;101903.14;1479165;94;21683;-88
2023/01/02 07:53:08;;;;;;;16.65;9.50;;;;;;;25.82;55.17;101902.58;1480901;94;21180;-89
2023/01/02 07:55:35;;;;;;;18.45;9.68;;;;;;;26.05;55.08;101907.81;1494113;94;21189;-88
2023/01/02 07:58:01;;;;;;;16.27;10.03;;;;;;;26.27;54.15;101914.45;1494109;94;21047;-87
2023/01/02 08:00:27;;;;;;;16.30;8.88;;;;;;;26.95;54.20;101912.90;1534692;90;21475;-92
2023/01/02 08:02:54;;;;;;;15.23;8.70;;;;;;;27.50;52.20;101915.63;1566223;91;21110;-88
2023/01/02 08:05:21;;;;;;;14.35;8.48;;;;;;;27.20;49.92;101917.16;1566730;91;21061;-92
2023/01/02 08:07:47;;;;;;;16.35;8.48;;;;;;;27.12;49.91;101912.48;1606055;85;22072;-85
2023/01/02 08:10:14;;;;;;;16.42;8.85;;;;;;;26.51;49.87;101915.78;1672571;85;21053;-87
2023/01/02 08:12:40;;;;;;;14.87;8.30;;;;;;;26.40;50.78;101922.81;1672766;84;20982;-87
2023/01/02 08:15:07;;;;;;;11.28;7.58;;;;;;;27.01;51.14;101930.69;1672562;85;21515;-87
2023/01/02 08:17:34;;;;;;;15.63;7.65;;;;;;;28.06;49.58;101920.09;1672711;85;20946;-87
2023/01/02 08:20:00;;;;;;;15.32;7.30;;;;;;;28.40;48.51;101922.95;1672705;84;21167;-85
2023/01/02 08:22:26;;;;;;;12.35;7.00;;;;;;;27.91;45.17;101921.58;1672605;84;20970;-87
2023/01/02 08:24:52;;;;;;;12.93;7.45;;;;;;;26.58;45.33;101927.10;1649683;85;21537;-86
2023/01/02 08:27:19;;;;;;;11.00;7.03;;;;;;;25.71;45.15;101926.72;1672654;85;21021;-84
2023/01/02 08:29:47;;;;;;;11.38;6.33;;;;;;;24.27;46.54;101935.96;1672837;85;21120;-85
2023/01/02 08:32:13;;;;;;;11.73;6.62;;;;;;;23.12;47.23;101933.48;1672539;84;21013;-86
2023/01/02 08:34:40;;;;;;;12.25;6.62;;;;;;;22.06;48.36;101931.34;1669099;85;20950;-86
2023/01/02 08:37:06;;;;;;;14.93;7.53;;;;;;;21.02;49.86;101938.05;1672656;84;21084;-86
2023/01/02 08:39:32;;;;;;;13.75;6.90;;;;;;;20.17;51.09;101929.56;1672674;85;21056;-86
2023/01/02 08:41:58;;;;;;;14.58;7.20;;;;;;;19.54;52.88;101926.94;1711088;82;21424;-84
2023/01/02 08:44:25;;;;;;;14.15;6.90;;;;;;;18.89;54.48;101931.82;1739773;82;21099;-85
2023/01/02 08:46:52;;;;;;;13.83;7.33;;;;;;;18.33;55.90;101930.16;1708965;83;21003;-86
2023/01/02 08:49:18;;;;;;;13.90;6.72;;;;;;;17.81;57.87;101930.03;1739924;82;21011;-83
2023/01/02 08:51:44;;;;;;;14.40;6.83;;;;;;;17.21;59.49;101938.77;1706829;82;21361;-80
2023/01/02 08:54:10;;;;;;;12.53;6.37;;;;;;;16.70;61.69;101929.09;1721675;81;20987;-79
2023/01/02 08:56:37;;;;;;;19.27;6.92;;;;;;;16.33;64.99;101931.42;1729474;81;21131;-83
2023/01/02 08:59:07;;;;;;;17.85;7.75;;;;;;;15.98;68.33;101934.78;1768450;78;20949;-80
2023/01/02 09:01:35;;;;;;;18.35;7.40;;;;;;;15.53;71.70;101935.24;1767679;80;20985;-79
2023/01/02 09:04:02;;;;;;;15.28;7.30;;;;;;;15.14;77.11;101938.98;1767654;80;21560;-79
2023/01/02 09:06:32;;;;;;;19.95;7.67;;;;;;;14.89;82.50;101937.40;1767779;80;21005;-81
2023/01/02 09:08:59;;;;;;;18.87;7.78;;;;;;;14.69;86.47;101937.99;1767513;80;21910;-84
2023/01/02 09:11:30;;;;;;;14.33;7.03;;;;;;;14.52;90.09;101938.87;1767573;80;20918;-79
2023/01/02 09:13:59;;;;;;;19.02;7.70;;;;;;;14.33;94.20;101936.72;1735679;82;21690;-81
2023/01/02 09:16:25;;;;;;;15.72;7.65;;;;;;;14.26;97.00;101935.53;1736062;81;20984;-79
2023/01/02 09:18:54;;;;;;;16.65;7.25;;;;;;;14.27;100.00;101938.00;1736067;81;21090;-79
2023/01/02 09:21:23;;;;;;;19.07;7.33;;;;;;;14.22;100.00;101939.83;1735837;81;21102;-80
2023/01/02 09:23:50;;;;;;;17.50;8.33;;;;;;;14.25;100.00;101940.67;1735970;81;21007;-80
2023/01/02 09:26:17;;;;;;;15.90;7.70;;;;;;;14.36;100.00;101931.61;1735912;81;21472;-79
2023/01/02 09:28:44;;;;;;;15.75;7.20;;;;;;;14.47;100.00;101931.17;1735805;81;21051;-80
2023/01/02 09:31:13;;;;;;;18.60;7.55;;;;;;;14.58;100.00;101930.80;1735805;81;21075;-80
2023/01/02 09:33:41;;;;;;;14.90;6.83;;;;;;;14.65;100.00;101934.16;1736024;81;21958;-79
2023/01/02 09:36:10;;;;;;;15.75;7.08;;;;;;;14.77;100.00;101928.05;1735889;81;21089;-86
2023/01/02 09:38:37;;;;;;;15.58;7.40;;;;;;;14.90;100.00;101924.91;1735917;81;21080;-80
2023/01/02 09:41:20;;;;;;;17.30;7.87;;;;;;;14.93;100.00;101934.45;1735634;81;21087;-79
2023/01/02 09:43:57;;;;;;;16.40;7.47;;;;;;;15.05;100.00;101927.50;1676618;85;21194;-80
2023/01/02 09:46:52;;;;;;;15.90;7.03;;;;;;;15.08;100.00;101925.09;1651512;85;21098;-78
2023/01/02 09:49:22;;;;;;;14.35;6.95;;;;;;;15.11;100.00;101930.55;1676930;85;20983;-82
2023/01/02 09:51:49;;;;;;;15.70;6.95;;;;;;;15.16;100.00;101922.45;1676707;85;21144;-81
2023/01/02 09:54:27;;;;;;;15.20;7.22;;;;;;;15.09;100.00;101924.55;1671367;85;21106;-81
2023/01/02 09:57:29;;;;;;;13.48;6.87;;;;;;;15.12;100.00;101929.48;1664515;86;21027;-81
2023/01/02 10:00:21;;;;;;;15.28;6.55;;;;;;;15.06;100.00;101933.20;1664317;86;22092;-81
2023/01/02 10:03:11;;;;;;;20.90;6.47;;;;;;;14.98;100.00;101939.39;1663879;85;22214;-81
2023/01/02 10:06:16;;;;;;;14.68;6.50;;;;;;;14.99;100.00;101930.70;1664181;86;21478;-81
2023/01/02 10:09:06;;;;;;;15.10;6.28;;;;;;;15.05;100.00;101922.07;1664092;85;21019;-81
2023/01/02 10:12:03;;;;;;;13.18;6.22;;;;;;;15.15;100.00;101926.26;1646217;85;21276;-79
2023/01/02 10:15:01;;;;;;;12.80;5.97;;;;;;;15.06;100.00;101931.33;1671365;85;21019;-76
2023/01/02 10:17:33;;;;;;;15.58;6.15;;;;;;;15.08;100.00;101932.42;1643907;87;21060;-80
2023/01/02 10:20:08;;;;;;;15.90;6.85;;;;;;;15.04;100.00;101938.09;1671086;84;21113;-77
2023/01/02 10:22:45;;;;;;;16.32;5.95;;;;;;;14.98;100.00;101939.94;1642752;87;21001;-79
2023/01/02 10:25:32;;;;;;;14.15;6.03;;;;;;;14.81;100.00;101931.87;1670976;84;21212;-79
2023/01/02 10:28:10;;;;;;;12.85;5.80;;;;;;;14.80;100.00;101934.32;1623251;87;21190;-81
2023/01/02 10:30:41;;;;;;;14.25;6.30;;;;;;;14.70;100.00;101928.22;1667584;85;20963;-79
2023/01/02 10:33:18;;;;;;;18.55;6.28;;;;;;;14.48;100.00;101932.30;1642370;85;21053;-85
2023/01/02 10:35:58;;;;;;;11.35;5.58;;;;;;;14.38;100.00;101925.91;1629395;88;21172;-80
2023/01/02 10:38:36;;;;;;;17.15;6.45;;;;;;;14.11;100.00;101920.42;1634181;86;21040;-78
2023/01/02 10:41:04;;;;;;;14.63;6.47;;;;;;;14.11;100.00;101920.42;1656448;86;21097;-80
2023/01/02 10:43:33;;;;;;;15.88;5.85;;;;;;;14.08;100.00;101917.67;1634381;86;20977;-78
2023/01/02 10:46:01;;;;;;;11.15;5.75;;;;;;;14.07;100.00;101912.80;1658764;85;20981;-75
2023/01/02 10:48:33;;;;;;;11.40;6.00;;;;;;;14.14;100.00;101903.66;1677825;85;21106;-79
2023/01/02 10:51:04;;;;;;;14.28;5.70;;;;;;;14.14;100.00;101915.31;1677555;85;21568;-81
2023/01/02 10:53:36;;;;;;;13.72;6.55;;;;;;;14.10;100.00;101912.83;1677881;84;21080;-80
2023/01/02 10:56:18;;;;;;;13.35;6.10;;;;;;;14.10;100.00;101912.83;1661385;86;21135;-79
2023/01/02 10:58:47;;;;;;;11.48;5.50;;;;;;;14.11;100.00;101908.22;1651970;86;21039;-81
2023/01/02 11:01:19;;;;;;;15.20;6.42;;;;;;;14.05;100.00;101906.80;1629087;88;21115;-80
2023/01/02 11:03:59;;;;;;;16.43;6.23;;;;;;;14.01;100.00;101915.69;1678117;85;21106;-80
2023/01/02 11:06:30;;;;;;;13.58;5.92;;;;;;;13.95;100.00;101915.34;1663335;86;21662;-80
2023/01/02 11:08:59;;;;;;;14.90;6.40;;;;;;;13.95;100.00;101921.58;1639433;86;21019;-80
2023/01/02 11:11:29;;;;;;;13.32;5.45;;;;;;;13.93;100.00;101920.99;1677729;85;21618;-81
2023/01/02 11:14:06;;;;;;;13.93;5.83;;;;;;;13.82;100.00;101925.47;1663855;86;21049;-81
2023/01/02 11:16:40;;;;;;;15.60;6.28;;;;;;;13.76;100.00;101931.03;1606940;88;21120;-81
2023/01/02 11:19:18;;;;;;;15.05;5.78;;;;;;;13.64;100.00;101935.19;1668652;85;21144;-80
2023/01/02 11:21:47;;;;;;;13.53;6.20;;;;;;;13.64;100.00;101935.19;1613863;87;21161;-80
2023/01/02 11:24:18;;;;;;;15.68;5.78;;;;;;;13.59;100.00;101934.59;1617171;87;21085;-79
2023/01/02 11:26:48;;;;;;;14.43;6.10;;;;;;;13.52;100.00;101936.62;1617273;87;21057;-80
2023/01/02 11:29:28;;;;;;;16.60;5.67;;;;;;;13.39;100.00;101928.31;1590360;89;21153;-81
2023/01/02 11:31:57;;;;;;;12.13;5.37;;;;;;;13.40;100.00;101944.02;1590246;89;22033;-81